CheckWX is a tool to help pilots better visualize weather data.  It is not intended as a substitute for an official pre-flight weather briefing.

17:02:11 UTC

EFKU TAF
Kuopio Airport
Kuopio / Siilinjärvi, Finland
TAF EFKU 181429Z 1815/1915 26010KT CAVOK BECMG 1903/1905 SCT040CB PROB30 1905/1909 BKN011 PROB30 1911/1915 7000 TSRA

Jun-18@
15:00 UTC

Jun-18 @ 15:00 UTC

Jun-19@
03:00 UTC

Jun-19 @ 03:00 UTC

TAF EFKU 181429Z 1815/1915 26010KT CAVOK
Wind
  • 260° at 10 KTS
Conditions
No significant weather
Cloud Levels
  • No significant clouds

Jun-19@
03:00 UTC

Jun-19 @ 03:00 UTC

Jun-19@
15:00 UTC

Jun-19 @ 15:00 UTC

BECMG 1903/1905 SCT040CB

Becoming

Becoming Conditions expected by Wed, Jun 19, 2019 @ 05:00 UTC

Wind
  • 260° at 10 KTS
Conditions
No significant weather
Cloud Levels
  • Scattered at 4,000' AGL

Jun-19@
05:00 UTC

Jun-19 @ 05:00 UTC

Jun-19@
09:00 UTC

Jun-19 @ 09:00 UTC

PROB30 1905/1909 BKN011

Probable - 30% Likelihood

Probable - 30% Likelihood during this time.

Cloud Levels
  • Broken at 1,100' AGL

Jun-19@
11:00 UTC

Jun-19 @ 11:00 UTC

Jun-19@
15:00 UTC

Jun-19 @ 15:00 UTC

PROB30 1911/1915 7000 TSRA

Probable - 30% Likelihood

Probable - 30% Likelihood during this time.

Conditions
Thunderstorm, Rain